Machala, Ecuador

8:50 PM ECT on October 21, 2014 (GMT -0500)
Machala, El Oro, Ecuador | Change Station
CLOSE
Current Station
Personal Weather Station
Location: El Cambio, EL ORO
Elevation: 20 ft
Nearby Weather Stations

Elev 20 ft 3.30 °S, 79.90 °W | Updated 9 minutes ago

Overcast
Overcast
74.7 °F
Feels Like 73 °F
N
0.0
Wind Variable Wind from ESE
Gusts 0.0 mph

Today
High -- | Low -- °F
--% Chance of Precip.
Yesterday
High -- | Low -- °F
Precip. -- in
5:58 AM 6:10 PM
Waning Crescent, 3% visible
Pressure 29.86 in
Visibility 6.2 miles
Clouds Overcast 1700 ft
Heat Index 73 °F
Dew Point 73 °F
Humidity 93%
Rainfall 0.05 in
Snow Depth Not available.
UV 0.0 out of 12
Pollen Not available.
Air Quality Not available.
Flu Activity Not available.
METAR SPME 220100Z 25005KT 9999 OVC017 23/21 Q1011 RMK BIRD HAZARD RWY 32/14 PP000

More Conditions Fewer Conditions

Pressure 29.86 in
Visibility 6.2 miles
Clouds Overcast 1700 ft
Heat Index 73 °F
Dew Point 73 °F
Humidity 93%
Rainfall 0.05 in
Snow Depth Not available.
UV 0.0 out of 12
Pollen Not available.
Air Quality Not available.
Flu Activity Not available.
METAR SPME 220100Z 25005KT 9999 OVC017 23/21 Q1011 RMK BIRD HAZARD RWY 32/14 PP000

More Conditions Fewer Conditions

10-Day Weather Forecast

Almanac

Astronomy

Oct. 21, 2014 Rise Set
Actual Time 5:58 AM ECT 6:10 PM ECT
Civil Twilight 5:37 AM ECT 6:31 PM ECT
Nautical Twilight 5:12 AM ECT 6:55 PM ECT
Astronomical Twilight 4:48 AM ECT 7:20 PM ECT
Moon 4:14 AM ECT (10/21) 4:36 PM ECT (10/21)
Length of Visible Light 12h 53m
Length of Day
12h 11m
Tomorrow will be 0m 11s longer.
Waning Crescent, 3% of the Moon is Illuminated
Today
Waning Crescent
Oct 23
New
Oct 30
First Quarter
Nov 6
Full
Nov 14
Last Quarter

Today's Extremes

Country Highs Country Lows

Community

WunderPhotos

Upload Photos

1,763,843 photos uploaded!

Nearby

Snow Depth

Not available.

Earthquake Activity

City Distance Mag. Time & Date
No recent earthquake activity has been reported nearby.
Minimum magnitude displayed is 2.5.

Coastal Water Temperatures

Place Temperature
No Stations Reporting

Nearby Weather Stations